sensor_id;sensor_type;location;lat;lon;timestamp;P1;durP1;ratioP1;P2;durP2;ratioP2
10705;SDS011;5404;42.656;23.336;2023-11-21T00:04:24;35.75;;;15.90;;
10705;SDS011;5404;42.656;23.336;2023-11-21T00:06:50;39.58;;;17.67;;
10705;SDS011;5404;42.656;23.336;2023-11-21T00:09:16;40.42;;;17.98;;
10705;SDS011;5404;42.656;23.336;2023-11-21T00:11:42;46.95;;;18.55;;
10705;SDS011;5404;42.656;23.336;2023-11-21T00:14:09;44.45;;;18.83;;
10705;SDS011;5404;42.656;23.336;2023-11-21T00:16:35;39.05;;;18.08;;
10705;SDS011;5404;42.656;23.336;2023-11-21T00:19:01;41.25;;;16.92;;
10705;SDS011;5404;42.656;23.336;2023-11-21T00:21:26;43.35;;;18.42;;
10705;SDS011;5404;42.656;23.336;2023-11-21T00:23:52;32.20;;;15.77;;
10705;SDS011;5404;42.656;23.336;2023-11-21T00:26:17;41.05;;;17.70;;
10705;SDS011;5404;42.656;23.336;2023-11-21T00:28:43;39.75;;;17.80;;
10705;SDS011;5404;42.656;23.336;2023-11-21T00:31:08;40.83;;;17.63;;
10705;SDS011;5404;42.656;23.336;2023-11-21T00:33:34;40.13;;;16.88;;
10705;SDS011;5404;42.656;23.336;2023-11-21T00:35:59;37.67;;;16.35;;
10705;SDS011;5404;42.656;23.336;2023-11-21T00:38:25;40.72;;;16.98;;
10705;SDS011;5404;42.656;23.336;2023-11-21T00:40:53;42.65;;;17.00;;
10705;SDS011;5404;42.656;23.336;2023-11-21T00:43:24;42.25;;;17.73;;
10705;SDS011;5404;42.656;23.336;2023-11-21T00:45:49;36.63;;;16.45;;
10705;SDS011;5404;42.656;23.336;2023-11-21T00:48:16;45.22;;;16.35;;
10705;SDS011;5404;42.656;23.336;2023-11-21T00:50:41;39.33;;;17.23;;
10705;SDS011;5404;42.656;23.336;2023-11-21T00:53:07;34.45;;;15.85;;
10705;SDS011;5404;42.656;23.336;2023-11-21T00:55:34;44.78;;;16.98;;
10705;SDS011;5404;42.656;23.336;2023-11-21T00:58:00;38.25;;;17.23;;
10705;SDS011;5404;42.656;23.336;2023-11-21T01:00:27;41.45;;;18.60;;
10705;SDS011;5404;42.656;23.336;2023-11-21T01:02:53;37.65;;;15.85;;
10705;SDS011;5404;42.656;23.336;2023-11-21T01:05:18;39.75;;;16.38;;
10705;SDS011;5404;42.656;23.336;2023-11-21T01:07:44;40.83;;;16.05;;
10705;SDS011;5404;42.656;23.336;2023-11-21T01:10:10;37.42;;;16.00;;
10705;SDS011;5404;42.656;23.336;2023-11-21T01:12:36;36.13;;;15.98;;
10705;SDS011;5404;42.656;23.336;2023-11-21T01:15:04;40.80;;;17.10;;
10705;SDS011;5404;42.656;23.336;2023-11-21T01:17:33;41.33;;;17.40;;
10705;SDS011;5404;42.656;23.336;2023-11-21T01:20:00;38.75;;;15.75;;
10705;SDS011;5404;42.656;23.336;2023-11-21T01:22:26;42.60;;;16.23;;
10705;SDS011;5404;42.656;23.336;2023-11-21T01:24:54;35.30;;;15.50;;
10705;SDS011;5404;42.656;23.336;2023-11-21T01:27:21;35.63;;;15.65;;
10705;SDS011;5404;42.656;23.336;2023-11-21T01:29:46;39.45;;;15.88;;
10705;SDS011;5404;42.656;23.336;2023-11-21T01:32:11;35.55;;;16.13;;
10705;SDS011;5404;42.656;23.336;2023-11-21T01:34:37;31.58;;;16.15;;
10705;SDS011;5404;42.656;23.336;2023-11-21T01:37:03;32.92;;;15.85;;
10705;SDS011;5404;42.656;23.336;2023-11-21T01:39:30;36.60;;;16.35;;
10705;SDS011;5404;42.656;23.336;2023-11-21T01:41:55;40.20;;;16.77;;
10705;SDS011;5404;42.656;23.336;2023-11-21T01:44:23;36.30;;;17.40;;
10705;SDS011;5404;42.656;23.336;2023-11-21T01:46:49;35.45;;;16.60;;
10705;SDS011;5404;42.656;23.336;2023-11-21T01:49:15;34.10;;;15.65;;
10705;SDS011;5404;42.656;23.336;2023-11-21T01:51:43;32.35;;;16.52;;
10705;SDS011;5404;42.656;23.336;2023-11-21T01:54:14;39.35;;;16.83;;
10705;SDS011;5404;42.656;23.336;2023-11-21T01:56:40;36.53;;;16.55;;
10705;SDS011;5404;42.656;23.336;2023-11-21T01:59:05;29.67;;;16.50;;
10705;SDS011;5404;42.656;23.336;2023-11-21T02:01:32;35.05;;;16.10;;
10705;SDS011;5404;42.656;23.336;2023-11-21T02:03:58;35.17;;;15.68;;
10705;SDS011;5404;42.656;23.336;2023-11-21T02:06:24;33.72;;;16.10;;
10705;SDS011;5404;42.656;23.336;2023-11-21T02:08:50;41.00;;;16.83;;
10705;SDS011;5404;42.656;23.336;2023-11-21T02:11:16;44.53;;;16.90;;
10705;SDS011;5404;42.656;23.336;2023-11-21T02:13:42;34.70;;;16.27;;
10705;SDS011;5404;42.656;23.336;2023-11-21T02:16:09;48.85;;;16.83;;
10705;SDS011;5404;42.656;23.336;2023-11-21T02:18:35;37.25;;;16.73;;
10705;SDS011;5404;42.656;23.336;2023-11-21T02:21:03;32.80;;;15.43;;
10705;SDS011;5404;42.656;23.336;2023-11-21T02:23:29;42.35;;;17.30;;
10705;SDS011;5404;42.656;23.336;2023-11-21T02:25:55;36.25;;;16.23;;
10705;SDS011;5404;42.656;23.336;2023-11-21T02:28:20;35.53;;;16.10;;
10705;SDS011;5404;42.656;23.336;2023-11-21T02:30:50;32.03;;;15.32;;
10705;SDS011;5404;42.656;23.336;2023-11-21T02:33:20;37.80;;;15.63;;
10705;SDS011;5404;42.656;23.336;2023-11-21T02:35:46;40.17;;;16.05;;
10705;SDS011;5404;42.656;23.336;2023-11-21T02:38:12;32.70;;;15.98;;
10705;SDS011;5404;42.656;23.336;2023-11-21T02:40:37;41.20;;;18.40;;
10705;SDS011;5404;42.656;23.336;2023-11-21T02:43:03;36.85;;;17.65;;
10705;SDS011;5404;42.656;23.336;2023-11-21T02:45:30;37.17;;;17.35;;
10705;SDS011;5404;42.656;23.336;2023-11-21T02:47:56;43.13;;;16.92;;
10705;SDS011;5404;42.656;23.336;2023-11-21T02:50:22;42.88;;;19.65;;
10705;SDS011;5404;42.656;23.336;2023-11-21T02:52:48;47.20;;;19.00;;
10705;SDS011;5404;42.656;23.336;2023-11-21T02:55:14;39.47;;;17.60;;
10705;SDS011;5404;42.656;23.336;2023-11-21T02:57:39;38.05;;;19.10;;
10705;SDS011;5404;42.656;23.336;2023-11-21T03:00:05;38.20;;;17.85;;
10705;SDS011;5404;42.656;23.336;2023-11-21T03:02:32;38.53;;;17.83;;
10705;SDS011;5404;42.656;23.336;2023-11-21T03:04:58;34.47;;;16.45;;
10705;SDS011;5404;42.656;23.336;2023-11-21T03:07:23;35.60;;;18.02;;
10705;SDS011;5404;42.656;23.336;2023-11-21T03:09:50;47.83;;;18.98;;
10705;SDS011;5404;42.656;23.336;2023-11-21T03:12:15;39.33;;;16.90;;
10705;SDS011;5404;42.656;23.336;2023-11-21T03:14:41;41.85;;;18.38;;
10705;SDS011;5404;42.656;23.336;2023-11-21T03:17:06;52.50;;;20.13;;
10705;SDS011;5404;42.656;23.336;2023-11-21T03:19:32;41.30;;;19.48;;
10705;SDS011;5404;42.656;23.336;2023-11-21T03:21:57;46.17;;;18.67;;
10705;SDS011;5404;42.656;23.336;2023-11-21T03:24:23;45.30;;;18.08;;
10705;SDS011;5404;42.656;23.336;2023-11-21T03:26:48;39.58;;;18.75;;
10705;SDS011;5404;42.656;23.336;2023-11-21T03:29:14;51.35;;;20.55;;
10705;SDS011;5404;42.656;23.336;2023-11-21T03:31:40;77.25;;;29.23;;
10705;SDS011;5404;42.656;23.336;2023-11-21T03:34:05;48.65;;;18.55;;
10705;SDS011;5404;42.656;23.336;2023-11-21T03:36:31;46.03;;;21.23;;
10705;SDS011;5404;42.656;23.336;2023-11-21T03:38:56;48.42;;;21.45;;
10705;SDS011;5404;42.656;23.336;2023-11-21T03:41:22;45.90;;;20.20;;
10705;SDS011;5404;42.656;23.336;2023-11-21T03:43:47;49.08;;;21.83;;
10705;SDS011;5404;42.656;23.336;2023-11-21T03:46:13;44.65;;;20.83;;
10705;SDS011;5404;42.656;23.336;2023-11-21T03:48:38;45.67;;;19.27;;
10705;SDS011;5404;42.656;23.336;2023-11-21T03:51:04;51.45;;;21.48;;
10705;SDS011;5404;42.656;23.336;2023-11-21T03:53:30;49.80;;;20.10;;
10705;SDS011;5404;42.656;23.336;2023-11-21T03:55:55;50.33;;;19.75;;
10705;SDS011;5404;42.656;23.336;2023-11-21T03:58:20;46.17;;;20.92;;
10705;SDS011;5404;42.656;23.336;2023-11-21T04:00:46;46.10;;;19.65;;
10705;SDS011;5404;42.656;23.336;2023-11-21T04:03:14;41.90;;;21.13;;
10705;SDS011;5404;42.656;23.336;2023-11-21T04:05:40;52.67;;;20.00;;
10705;SDS011;5404;42.656;23.336;2023-11-21T04:08:06;48.92;;;20.95;;
10705;SDS011;5404;42.656;23.336;2023-11-21T04:10:31;39.55;;;20.15;;
10705;SDS011;5404;42.656;23.336;2023-11-21T04:12:57;56.90;;;18.80;;
10705;SDS011;5404;42.656;23.336;2023-11-21T04:15:23;48.08;;;19.98;;
10705;SDS011;5404;42.656;23.336;2023-11-21T04:17:48;44.50;;;20.65;;
10705;SDS011;5404;42.656;23.336;2023-11-21T04:20:14;51.05;;;22.65;;
10705;SDS011;5404;42.656;23.336;2023-11-21T04:22:40;53.03;;;22.23;;
10705;SDS011;5404;42.656;23.336;2023-11-21T04:25:07;42.97;;;19.77;;
10705;SDS011;5404;42.656;23.336;2023-11-21T04:27:34;42.42;;;20.95;;
10705;SDS011;5404;42.656;23.336;2023-11-21T04:29:59;46.38;;;19.60;;
10705;SDS011;5404;42.656;23.336;2023-11-21T04:32:25;43.08;;;21.42;;
10705;SDS011;5404;42.656;23.336;2023-11-21T04:34:50;52.30;;;21.48;;
10705;SDS011;5404;42.656;23.336;2023-11-21T04:37:16;32.42;;;15.13;;
10705;SDS011;5404;42.656;23.336;2023-11-21T04:39:41;53.42;;;23.52;;
10705;SDS011;5404;42.656;23.336;2023-11-21T04:42:06;48.33;;;23.23;;
10705;SDS011;5404;42.656;23.336;2023-11-21T04:44:32;50.67;;;22.25;;
10705;SDS011;5404;42.656;23.336;2023-11-21T04:46:57;46.50;;;22.33;;
10705;SDS011;5404;42.656;23.336;2023-11-21T04:49:23;61.45;;;24.08;;
10705;SDS011;5404;42.656;23.336;2023-11-21T04:51:48;44.58;;;21.25;;
10705;SDS011;5404;42.656;23.336;2023-11-21T04:54:13;45.58;;;22.85;;
10705;SDS011;5404;42.656;23.336;2023-11-21T04:56:39;65.63;;;26.05;;
10705;SDS011;5404;42.656;23.336;2023-11-21T04:59:04;49.35;;;26.90;;
10705;SDS011;5404;42.656;23.336;2023-11-21T05:01:30;59.65;;;26.58;;
10705;SDS011;5404;42.656;23.336;2023-11-21T05:03:55;60.55;;;29.45;;
10705;SDS011;5404;42.656;23.336;2023-11-21T05:06:22;52.53;;;27.10;;
10705;SDS011;5404;42.656;23.336;2023-11-21T05:08:48;50.63;;;21.63;;
10705;SDS011;5404;42.656;23.336;2023-11-21T05:11:23;45.80;;;21.20;;
10705;SDS011;5404;42.656;23.336;2023-11-21T05:13:52;55.25;;;26.83;;
10705;SDS011;5404;42.656;23.336;2023-11-21T05:16:18;56.03;;;23.30;;
10705;SDS011;5404;42.656;23.336;2023-11-21T05:18:44;48.88;;;19.05;;
10705;SDS011;5404;42.656;23.336;2023-11-21T05:21:10;36.55;;;18.73;;
10705;SDS011;5404;42.656;23.336;2023-11-21T05:23:35;51.80;;;20.45;;
10705;SDS011;5404;42.656;23.336;2023-11-21T05:26:02;39.45;;;20.15;;
10705;SDS011;5404;42.656;23.336;2023-11-21T05:28:28;37.72;;;19.08;;
10705;SDS011;5404;42.656;23.336;2023-11-21T05:30:53;38.35;;;20.05;;
10705;SDS011;5404;42.656;23.336;2023-11-21T05:33:20;42.15;;;20.50;;
10705;SDS011;5404;42.656;23.336;2023-11-21T05:35:46;40.03;;;20.45;;
10705;SDS011;5404;42.656;23.336;2023-11-21T05:38:13;51.25;;;21.92;;
10705;SDS011;5404;42.656;23.336;2023-11-21T05:40:40;49.45;;;24.42;;
10705;SDS011;5404;42.656;23.336;2023-11-21T05:43:06;58.35;;;24.55;;
10705;SDS011;5404;42.656;23.336;2023-11-21T05:45:31;53.60;;;23.92;;
10705;SDS011;5404;42.656;23.336;2023-11-21T05:47:58;62.90;;;24.05;;
10705;SDS011;5404;42.656;23.336;2023-11-21T05:50:23;54.88;;;24.23;;
10705;SDS011;5404;42.656;23.336;2023-11-21T05:52:49;48.05;;;23.05;;
10705;SDS011;5404;42.656;23.336;2023-11-21T05:55:14;56.08;;;23.25;;
10705;SDS011;5404;42.656;23.336;2023-11-21T05:57:41;51.72;;;23.58;;
10705;SDS011;5404;42.656;23.336;2023-11-21T06:00:09;63.53;;;26.33;;
10705;SDS011;5404;42.656;23.336;2023-11-21T06:02:38;54.10;;;23.60;;
10705;SDS011;5404;42.656;23.336;2023-11-21T06:05:05;59.50;;;24.52;;
10705;SDS011;5404;42.656;23.336;2023-11-21T06:07:31;52.95;;;22.98;;
10705;SDS011;5404;42.656;23.336;2023-11-21T06:09:57;85.75;;;27.23;;
10705;SDS011;5404;42.656;23.336;2023-11-21T06:12:22;75.60;;;30.95;;
10705;SDS011;5404;42.656;23.336;2023-11-21T06:14:48;79.85;;;31.95;;
10705;SDS011;5404;42.656;23.336;2023-11-21T06:17:13;67.10;;;29.88;;
10705;SDS011;5404;42.656;23.336;2023-11-21T06:19:39;70.30;;;30.38;;
10705;SDS011;5404;42.656;23.336;2023-11-21T06:22:05;63.58;;;28.02;;
10705;SDS011;5404;42.656;23.336;2023-11-21T06:24:31;77.20;;;26.95;;
10705;SDS011;5404;42.656;23.336;2023-11-21T06:26:56;82.68;;;28.15;;
10705;SDS011;5404;42.656;23.336;2023-11-21T06:29:22;60.22;;;24.90;;
10705;SDS011;5404;42.656;23.336;2023-11-21T06:31:47;54.70;;;23.63;;
10705;SDS011;5404;42.656;23.336;2023-11-21T06:34:13;53.88;;;23.95;;
10705;SDS011;5404;42.656;23.336;2023-11-21T06:36:38;58.60;;;23.58;;
10705;SDS011;5404;42.656;23.336;2023-11-21T06:39:04;47.05;;;23.17;;
10705;SDS011;5404;42.656;23.336;2023-11-21T06:41:33;49.95;;;23.40;;
10705;SDS011;5404;42.656;23.336;2023-11-21T06:43:59;46.67;;;23.35;;
10705;SDS011;5404;42.656;23.336;2023-11-21T06:46:25;66.00;;;25.63;;
10705;SDS011;5404;42.656;23.336;2023-11-21T06:48:50;51.78;;;24.38;;
10705;SDS011;5404;42.656;23.336;2023-11-21T06:51:16;49.78;;;22.55;;
10705;SDS011;5404;42.656;23.336;2023-11-21T06:53:41;56.58;;;22.77;;
10705;SDS011;5404;42.656;23.336;2023-11-21T06:56:19;48.63;;;22.45;;
10705;SDS011;5404;42.656;23.336;2023-11-21T06:58:45;48.28;;;22.58;;
10705;SDS011;5404;42.656;23.336;2023-11-21T07:01:11;55.47;;;24.58;;
10705;SDS011;5404;42.656;23.336;2023-11-21T07:06:06;44.60;;;21.55;;
10705;SDS011;5404;42.656;23.336;2023-11-21T07:08:32;42.42;;;21.02;;
10705;SDS011;5404;42.656;23.336;2023-11-21T07:10:58;48.53;;;19.52;;
10705;SDS011;5404;42.656;23.336;2023-11-21T07:13:23;38.13;;;19.30;;
10705;SDS011;5404;42.656;23.336;2023-11-21T07:15:49;44.78;;;19.63;;
10705;SDS011;5404;42.656;23.336;2023-11-21T07:18:14;49.17;;;19.92;;
10705;SDS011;5404;42.656;23.336;2023-11-21T07:20:40;50.90;;;20.88;;
10705;SDS011;5404;42.656;23.336;2023-11-21T07:23:05;34.63;;;18.25;;
10705;SDS011;5404;42.656;23.336;2023-11-21T07:25:31;45.75;;;18.52;;
10705;SDS011;5404;42.656;23.336;2023-11-21T07:27:58;48.63;;;19.17;;
10705;SDS011;5404;42.656;23.336;2023-11-21T07:30:25;48.10;;;19.05;;
10705;SDS011;5404;42.656;23.336;2023-11-21T07:32:51;39.75;;;18.90;;
10705;SDS011;5404;42.656;23.336;2023-11-21T07:35:16;50.65;;;20.02;;
10705;SDS011;5404;42.656;23.336;2023-11-21T07:37:42;42.55;;;20.08;;
10705;SDS011;5404;42.656;23.336;2023-11-21T07:40:08;31.45;;;16.38;;
10705;SDS011;5404;42.656;23.336;2023-11-21T07:42:34;63.38;;;18.98;;
10705;SDS011;5404;42.656;23.336;2023-11-21T07:44:59;40.40;;;19.15;;
10705;SDS011;5404;42.656;23.336;2023-11-21T07:47:25;40.95;;;18.58;;
10705;SDS011;5404;42.656;23.336;2023-11-21T07:49:53;41.45;;;19.55;;
10705;SDS011;5404;42.656;23.336;2023-11-21T07:52:20;46.58;;;19.23;;
10705;SDS011;5404;42.656;23.336;2023-11-21T07:54:46;46.58;;;18.58;;
10705;SDS011;5404;42.656;23.336;2023-11-21T07:57:12;44.47;;;18.05;;
10705;SDS011;5404;42.656;23.336;2023-11-21T07:59:38;40.15;;;17.88;;
10705;SDS011;5404;42.656;23.336;2023-11-21T08:02:08;35.35;;;17.15;;
10705;SDS011;5404;42.656;23.336;2023-11-21T08:04:33;44.97;;;18.83;;
10705;SDS011;5404;42.656;23.336;2023-11-21T08:07:00;37.83;;;18.58;;
10705;SDS011;5404;42.656;23.336;2023-11-21T08:09:27;40.72;;;19.02;;
10705;SDS011;5404;42.656;23.336;2023-11-21T08:11:52;39.28;;;19.08;;
10705;SDS011;5404;42.656;23.336;2023-11-21T08:14:18;43.08;;;17.90;;
10705;SDS011;5404;42.656;23.336;2023-11-21T08:16:44;50.08;;;19.67;;
10705;SDS011;5404;42.656;23.336;2023-11-21T08:19:09;68.57;;;19.45;;
10705;SDS011;5404;42.656;23.336;2023-11-21T08:21:36;50.75;;;19.05;;
10705;SDS011;5404;42.656;23.336;2023-11-21T08:24:04;43.13;;;18.50;;
10705;SDS011;5404;42.656;23.336;2023-11-21T08:26:30;43.75;;;20.83;;
10705;SDS011;5404;42.656;23.336;2023-11-21T08:28:56;59.03;;;19.50;;
10705;SDS011;5404;42.656;23.336;2023-11-21T08:31:27;42.30;;;17.92;;
10705;SDS011;5404;42.656;23.336;2023-11-21T08:33:55;34.78;;;16.23;;
10705;SDS011;5404;42.656;23.336;2023-11-21T08:36:21;40.00;;;18.30;;
10705;SDS011;5404;42.656;23.336;2023-11-21T08:38:49;51.35;;;19.85;;
10705;SDS011;5404;42.656;23.336;2023-11-21T08:41:14;54.33;;;19.77;;
10705;SDS011;5404;42.656;23.336;2023-11-21T08:43:41;48.30;;;20.23;;
10705;SDS011;5404;42.656;23.336;2023-11-21T08:46:07;53.22;;;20.92;;
10705;SDS011;5404;42.656;23.336;2023-11-21T08:48:34;56.85;;;19.90;;
10705;SDS011;5404;42.656;23.336;2023-11-21T08:51:01;66.55;;;21.60;;
10705;SDS011;5404;42.656;23.336;2023-11-21T08:53:26;52.97;;;19.98;;
10705;SDS011;5404;42.656;23.336;2023-11-21T08:55:52;59.20;;;21.88;;
10705;SDS011;5404;42.656;23.336;2023-11-21T08:58:18;54.97;;;22.10;;
10705;SDS011;5404;42.656;23.336;2023-11-21T09:00:44;62.17;;;21.30;;
10705;SDS011;5404;42.656;23.336;2023-11-21T09:03:11;51.08;;;18.98;;
10705;SDS011;5404;42.656;23.336;2023-11-21T09:05:38;49.45;;;18.90;;
10705;SDS011;5404;42.656;23.336;2023-11-21T09:08:04;49.45;;;19.67;;
10705;SDS011;5404;42.656;23.336;2023-11-21T09:10:30;54.47;;;17.60;;
10705;SDS011;5404;42.656;23.336;2023-11-21T09:12:57;47.47;;;18.20;;
10705;SDS011;5404;42.656;23.336;2023-11-21T09:15:24;40.33;;;17.48;;
10705;SDS011;5404;42.656;23.336;2023-11-21T09:17:50;49.80;;;17.13;;
10705;SDS011;5404;42.656;23.336;2023-11-21T09:20:15;43.90;;;16.90;;
10705;SDS011;5404;42.656;23.336;2023-11-21T09:22:41;33.83;;;15.18;;
10705;SDS011;5404;42.656;23.336;2023-11-21T09:25:06;44.42;;;16.15;;
10705;SDS011;5404;42.656;23.336;2023-11-21T09:27:33;42.97;;;16.90;;
10705;SDS011;5404;42.656;23.336;2023-11-21T09:30:01;41.40;;;17.63;;
10705;SDS011;5404;42.656;23.336;2023-11-21T09:32:27;42.90;;;17.95;;
10705;SDS011;5404;42.656;23.336;2023-11-21T09:34:52;44.15;;;16.27;;
10705;SDS011;5404;42.656;23.336;2023-11-21T09:37:20;47.88;;;16.35;;
10705;SDS011;5404;42.656;23.336;2023-11-21T09:39:45;34.40;;;16.45;;
10705;SDS011;5404;42.656;23.336;2023-11-21T09:42:17;34.83;;;16.55;;
10705;SDS011;5404;42.656;23.336;2023-11-21T09:44:51;52.80;;;21.60;;
10705;SDS011;5404;42.656;23.336;2023-11-21T09:47:23;41.60;;;18.92;;
10705;SDS011;5404;42.656;23.336;2023-11-21T09:49:49;39.03;;;19.08;;
10705;SDS011;5404;42.656;23.336;2023-11-21T09:52:18;47.35;;;20.48;;
10705;SDS011;5404;42.656;23.336;2023-11-21T09:54:50;39.88;;;17.83;;
10705;SDS011;5404;42.656;23.336;2023-11-21T09:57:19;37.70;;;19.33;;
10705;SDS011;5404;42.656;23.336;2023-11-21T09:59:46;40.58;;;19.45;;
10705;SDS011;5404;42.656;23.336;2023-11-21T10:02:15;40.28;;;19.52;;
10705;SDS011;5404;42.656;23.336;2023-11-21T10:04:44;50.67;;;19.27;;
10705;SDS011;5404;42.656;23.336;2023-11-21T10:07:12;35.93;;;18.10;;
10705;SDS011;5404;42.656;23.336;2023-11-21T10:09:42;50.55;;;19.75;;
10705;SDS011;5404;42.656;23.336;2023-11-21T10:12:08;43.00;;;18.95;;
10705;SDS011;5404;42.656;23.336;2023-11-21T10:14:36;45.30;;;19.75;;
10705;SDS011;5404;42.656;23.336;2023-11-21T10:17:06;36.15;;;19.45;;
10705;SDS011;5404;42.656;23.336;2023-11-21T10:19:33;38.30;;;18.70;;
10705;SDS011;5404;42.656;23.336;2023-11-21T10:22:01;42.55;;;19.10;;
10705;SDS011;5404;42.656;23.336;2023-11-21T10:24:27;40.45;;;19.05;;
10705;SDS011;5404;42.656;23.336;2023-11-21T10:26:52;48.05;;;17.23;;
10705;SDS011;5404;42.656;23.336;2023-11-21T10:29:18;44.50;;;17.42;;
10705;SDS011;5404;42.656;23.336;2023-11-21T10:31:48;30.58;;;16.52;;
10705;SDS011;5404;42.656;23.336;2023-11-21T10:34:14;30.67;;;15.55;;
10705;SDS011;5404;42.656;23.336;2023-11-21T10:36:44;25.95;;;14.38;;
10705;SDS011;5404;42.656;23.336;2023-11-21T10:39:14;27.02;;;13.40;;
10705;SDS011;5404;42.656;23.336;2023-11-21T10:41:45;38.92;;;17.00;;
10705;SDS011;5404;42.656;23.336;2023-11-21T10:44:13;34.85;;;16.67;;
10705;SDS011;5404;42.656;23.336;2023-11-21T10:46:45;36.30;;;18.08;;
10705;SDS011;5404;42.656;23.336;2023-11-21T10:49:15;29.10;;;14.80;;
10705;SDS011;5404;42.656;23.336;2023-11-21T10:51:43;44.92;;;16.50;;
10705;SDS011;5404;42.656;23.336;2023-11-21T10:54:09;34.80;;;15.82;;
10705;SDS011;5404;42.656;23.336;2023-11-21T10:56:34;33.92;;;15.68;;
10705;SDS011;5404;42.656;23.336;2023-11-21T10:59:05;34.58;;;17.00;;
10705;SDS011;5404;42.656;23.336;2023-11-21T11:01:34;40.30;;;17.27;;
10705;SDS011;5404;42.656;23.336;2023-11-21T11:04:01;36.40;;;17.73;;
10705;SDS011;5404;42.656;23.336;2023-11-21T11:06:31;34.25;;;16.08;;
10705;SDS011;5404;42.656;23.336;2023-11-21T11:08:58;45.78;;;16.90;;
10705;SDS011;5404;42.656;23.336;2023-11-21T11:11:27;46.35;;;19.15;;
10705;SDS011;5404;42.656;23.336;2023-11-21T11:13:55;45.20;;;19.30;;
10705;SDS011;5404;42.656;23.336;2023-11-21T11:16:21;36.83;;;17.60;;
10705;SDS011;5404;42.656;23.336;2023-11-21T11:18:49;33.07;;;16.37;;
10705;SDS011;5404;42.656;23.336;2023-11-21T11:38:51;31.90;;;16.92;;
10705;SDS011;5404;42.656;23.336;2023-11-21T11:41:24;38.90;;;16.67;;
10705;SDS011;5404;42.656;23.336;2023-11-21T11:43:51;39.20;;;16.02;;
10705;SDS011;5404;42.656;23.336;2023-11-21T11:46:17;30.30;;;16.20;;
10705;SDS011;5404;42.656;23.336;2023-11-21T11:51:13;33.03;;;16.98;;
10705;SDS011;5404;42.656;23.336;2023-11-21T11:53:43;43.78;;;17.70;;
10705;SDS011;5404;42.656;23.336;2023-11-21T11:56:20;43.47;;;20.00;;
10705;SDS011;5404;42.656;23.336;2023-11-21T11:59:03;51.42;;;18.42;;
10705;SDS011;5404;42.656;23.336;2023-11-21T12:06:45;43.25;;;19.80;;
10705;SDS011;5404;42.656;23.336;2023-11-21T12:09:20;41.45;;;19.80;;
10705;SDS011;5404;42.656;23.336;2023-11-21T12:11:47;48.72;;;21.25;;
10705;SDS011;5404;42.656;23.336;2023-11-21T12:14:14;38.63;;;20.63;;
10705;SDS011;5404;42.656;23.336;2023-11-21T12:16:40;36.95;;;20.67;;
10705;SDS011;5404;42.656;23.336;2023-11-21T12:19:07;42.65;;;20.27;;
10705;SDS011;5404;42.656;23.336;2023-11-21T12:21:33;43.05;;;23.60;;
10705;SDS011;5404;42.656;23.336;2023-11-21T12:24:01;51.97;;;23.88;;
10705;SDS011;5404;42.656;23.336;2023-11-21T12:26:26;55.10;;;25.92;;
10705;SDS011;5404;42.656;23.336;2023-11-21T12:28:52;49.92;;;25.35;;
10705;SDS011;5404;42.656;23.336;2023-11-21T12:31:22;45.28;;;26.88;;
10705;SDS011;5404;42.656;23.336;2023-11-21T12:33:51;61.67;;;27.05;;
10705;SDS011;5404;42.656;23.336;2023-11-21T12:36:17;56.55;;;27.20;;
10705;SDS011;5404;42.656;23.336;2023-11-21T12:38:42;50.85;;;26.00;;
10705;SDS011;5404;42.656;23.336;2023-11-21T12:41:09;54.30;;;26.63;;
10705;SDS011;5404;42.656;23.336;2023-11-21T12:43:37;57.95;;;26.02;;
10705;SDS011;5404;42.656;23.336;2023-11-21T12:46:07;46.70;;;25.08;;
10705;SDS011;5404;42.656;23.336;2023-11-21T12:48:37;64.05;;;27.33;;
10705;SDS011;5404;42.656;23.336;2023-11-21T12:51:05;53.63;;;26.83;;
10705;SDS011;5404;42.656;23.336;2023-11-21T12:53:31;52.78;;;27.17;;
10705;SDS011;5404;42.656;23.336;2023-11-21T12:56:02;57.50;;;27.55;;
10705;SDS011;5404;42.656;23.336;2023-11-21T12:58:34;60.50;;;30.10;;
10705;SDS011;5404;42.656;23.336;2023-11-21T13:01:00;57.78;;;28.33;;
10705;SDS011;5404;42.656;23.336;2023-11-21T13:03:29;55.33;;;27.42;;
10705;SDS011;5404;42.656;23.336;2023-11-21T13:05:55;59.03;;;27.70;;
10705;SDS011;5404;42.656;23.336;2023-11-21T13:08:22;55.92;;;27.42;;
10705;SDS011;5404;42.656;23.336;2023-11-21T13:10:53;63.28;;;28.25;;
10705;SDS011;5404;42.656;23.336;2023-11-21T13:13:20;60.90;;;29.88;;
10705;SDS011;5404;42.656;23.336;2023-11-21T13:15:49;52.30;;;28.33;;
10705;SDS011;5404;42.656;23.336;2023-11-21T13:18:22;66.28;;;30.25;;
10705;SDS011;5404;42.656;23.336;2023-11-21T13:20:48;64.07;;;29.77;;
10705;SDS011;5404;42.656;23.336;2023-11-21T13:23:15;69.55;;;34.05;;
10705;SDS011;5404;42.656;23.336;2023-11-21T13:25:43;66.93;;;29.80;;
10705;SDS011;5404;42.656;23.336;2023-11-21T13:28:10;64.38;;;29.33;;
10705;SDS011;5404;42.656;23.336;2023-11-21T13:30:36;64.75;;;28.48;;
10705;SDS011;5404;42.656;23.336;2023-11-21T13:33:05;62.75;;;29.10;;
10705;SDS011;5404;42.656;23.336;2023-11-21T13:35:32;57.83;;;28.95;;
10705;SDS011;5404;42.656;23.336;2023-11-21T13:38:12;57.05;;;29.42;;
10705;SDS011;5404;42.656;23.336;2023-11-21T13:40:39;60.20;;;28.95;;
10705;SDS011;5404;42.656;23.336;2023-11-21T13:43:14;66.75;;;30.67;;
10705;SDS011;5404;42.656;23.336;2023-11-21T13:45:44;63.35;;;29.25;;
10705;SDS011;5404;42.656;23.336;2023-11-21T13:48:11;70.07;;;31.27;;
10705;SDS011;5404;42.656;23.336;2023-11-21T13:50:48;66.90;;;31.17;;
10705;SDS011;5404;42.656;23.336;2023-11-21T13:53:20;72.25;;;31.35;;
10705;SDS011;5404;42.656;23.336;2023-11-21T13:55:52;52.28;;;30.60;;
10705;SDS011;5404;42.656;23.336;2023-11-21T13:58:23;67.95;;;30.73;;
10705;SDS011;5404;42.656;23.336;2023-11-21T14:01:07;76.55;;;32.45;;
10705;SDS011;5404;42.656;23.336;2023-11-21T14:03:49;70.38;;;33.22;;
10705;SDS011;5404;42.656;23.336;2023-11-21T14:06:21;64.80;;;34.50;;
10705;SDS011;5404;42.656;23.336;2023-11-21T14:08:52;73.25;;;34.10;;
10705;SDS011;5404;42.656;23.336;2023-11-21T14:11:21;76.72;;;35.10;;
10705;SDS011;5404;42.656;23.336;2023-11-21T14:13:47;75.45;;;32.58;;
10705;SDS011;5404;42.656;23.336;2023-11-21T14:16:13;80.00;;;33.72;;
10705;SDS011;5404;42.656;23.336;2023-11-21T14:18:39;75.85;;;32.83;;
10705;SDS011;5404;42.656;23.336;2023-11-21T14:21:19;70.57;;;31.85;;
10705;SDS011;5404;42.656;23.336;2023-11-21T14:23:44;98.63;;;35.17;;
10705;SDS011;5404;42.656;23.336;2023-11-21T14:26:11;71.82;;;36.00;;
10705;SDS011;5404;42.656;23.336;2023-11-21T14:28:41;74.25;;;33.78;;
10705;SDS011;5404;42.656;23.336;2023-11-21T14:31:07;99.97;;;40.72;;
10705;SDS011;5404;42.656;23.336;2023-11-21T14:33:38;74.45;;;35.08;;
10705;SDS011;5404;42.656;23.336;2023-11-21T14:36:03;84.45;;;37.78;;
10705;SDS011;5404;42.656;23.336;2023-11-21T14:38:33;67.13;;;32.88;;
10705;SDS011;5404;42.656;23.336;2023-11-21T14:40:58;85.85;;;34.58;;
10705;SDS011;5404;42.656;23.336;2023-11-21T14:43:24;99.00;;;36.60;;
10705;SDS011;5404;42.656;23.336;2023-11-21T14:45:50;71.70;;;32.42;;
10705;SDS011;5404;42.656;23.336;2023-11-21T14:48:17;81.93;;;35.42;;
10705;SDS011;5404;42.656;23.336;2023-11-21T14:50:56;78.70;;;35.55;;